sensor_id;sensor_type;location;lat;lon;timestamp;P1;durP1;ratioP1;P2;durP2;ratioP2
69744;SDS011;57015;50.120;-5.168;2023-07-09T00:01:15;5.20;;;1.53;;
69744;SDS011;57015;50.120;-5.168;2023-07-09T00:03:42;6.20;;;1.35;;
69744;SDS011;57015;50.120;-5.168;2023-07-09T00:06:13;4.88;;;1.27;;
69744;SDS011;57015;50.120;-5.168;2023-07-09T00:08:40;4.28;;;1.05;;
69744;SDS011;57015;50.120;-5.168;2023-07-09T00:11:09;4.03;;;1.00;;
69744;SDS011;57015;50.120;-5.168;2023-07-09T00:13:34;3.35;;;0.93;;
69744;SDS011;57015;50.120;-5.168;2023-07-09T00:16:00;4.87;;;1.40;;
69744;SDS011;57015;50.120;-5.168;2023-07-09T00:18:26;8.83;;;1.27;;
69744;SDS011;57015;50.120;-5.168;2023-07-09T00:20:52;4.75;;;1.40;;
69744;SDS011;57015;50.120;-5.168;2023-07-09T00:23:17;5.97;;;1.17;;
69744;SDS011;57015;50.120;-5.168;2023-07-09T00:25:45;3.63;;;1.00;;
69744;SDS011;57015;50.120;-5.168;2023-07-09T00:28:14;4.80;;;1.00;;
69744;SDS011;57015;50.120;-5.168;2023-07-09T00:30:46;6.00;;;1.48;;
69744;SDS011;57015;50.120;-5.168;2023-07-09T00:33:13;3.47;;;1.05;;
69744;SDS011;57015;50.120;-5.168;2023-07-09T00:35:43;3.90;;;0.88;;
69744;SDS011;57015;50.120;-5.168;2023-07-09T00:38:21;5.20;;;0.93;;
69744;SDS011;57015;50.120;-5.168;2023-07-09T00:40:48;4.82;;;1.10;;
69744;SDS011;57015;50.120;-5.168;2023-07-09T00:43:24;5.00;;;1.10;;
69744;SDS011;57015;50.120;-5.168;2023-07-09T00:49:05;3.60;;;0.73;;
69744;SDS011;57015;50.120;-5.168;2023-07-09T00:51:31;4.97;;;1.00;;
69744;SDS011;57015;50.120;-5.168;2023-07-09T00:54:01;3.40;;;0.95;;
69744;SDS011;57015;50.120;-5.168;2023-07-09T00:56:42;5.82;;;1.27;;
69744;SDS011;57015;50.120;-5.168;2023-07-09T00:59:10;3.67;;;0.95;;
69744;SDS011;57015;50.120;-5.168;2023-07-09T01:01:39;4.95;;;0.90;;
69744;SDS011;57015;50.120;-5.168;2023-07-09T01:04:05;4.07;;;0.87;;
69744;SDS011;57015;50.120;-5.168;2023-07-09T01:06:34;5.30;;;1.13;;
69744;SDS011;57015;50.120;-5.168;2023-07-09T01:09:02;3.67;;;1.13;;
69744;SDS011;57015;50.120;-5.168;2023-07-09T01:11:28;6.65;;;1.25;;
69744;SDS011;57015;50.120;-5.168;2023-07-09T01:13:55;9.52;;;1.30;;
69744;SDS011;57015;50.120;-5.168;2023-07-09T01:16:22;5.40;;;1.10;;
69744;SDS011;57015;50.120;-5.168;2023-07-09T01:18:54;3.30;;;1.00;;
69744;SDS011;57015;50.120;-5.168;2023-07-09T01:21:20;4.20;;;1.10;;
69744;SDS011;57015;50.120;-5.168;2023-07-09T01:23:47;4.68;;;0.90;;
69744;SDS011;57015;50.120;-5.168;2023-07-09T01:26:14;6.78;;;1.20;;
69744;SDS011;57015;50.120;-5.168;2023-07-09T01:28:41;3.27;;;0.90;;
69744;SDS011;57015;50.120;-5.168;2023-07-09T01:31:09;8.50;;;1.27;;
69744;SDS011;57015;50.120;-5.168;2023-07-09T01:33:38;4.20;;;1.00;;
69744;SDS011;57015;50.120;-5.168;2023-07-09T01:36:05;6.13;;;1.40;;
69744;SDS011;57015;50.120;-5.168;2023-07-09T01:38:32;5.57;;;1.17;;
69744;SDS011;57015;50.120;-5.168;2023-07-09T01:40:57;4.10;;;1.10;;
69744;SDS011;57015;50.120;-5.168;2023-07-09T01:43:23;5.23;;;0.97;;
69744;SDS011;57015;50.120;-5.168;2023-07-09T01:45:52;3.83;;;1.15;;
69744;SDS011;57015;50.120;-5.168;2023-07-09T01:48:18;6.23;;;1.50;;
69744;SDS011;57015;50.120;-5.168;2023-07-09T01:50:45;5.20;;;1.30;;
69744;SDS011;57015;50.120;-5.168;2023-07-09T01:53:15;5.43;;;1.55;;
69744;SDS011;57015;50.120;-5.168;2023-07-09T01:55:41;7.65;;;1.15;;
69744;SDS011;57015;50.120;-5.168;2023-07-09T01:58:07;5.15;;;1.20;;
69744;SDS011;57015;50.120;-5.168;2023-07-09T02:00:33;4.53;;;0.95;;
69744;SDS011;57015;50.120;-5.168;2023-07-09T02:03:02;6.20;;;1.20;;
69744;SDS011;57015;50.120;-5.168;2023-07-09T02:05:30;6.88;;;1.60;;
69744;SDS011;57015;50.120;-5.168;2023-07-09T02:07:56;6.38;;;1.17;;
69744;SDS011;57015;50.120;-5.168;2023-07-09T02:10:22;4.87;;;1.20;;
69744;SDS011;57015;50.120;-5.168;2023-07-09T02:12:47;6.07;;;1.13;;
69744;SDS011;57015;50.120;-5.168;2023-07-09T02:15:13;4.32;;;0.93;;
69744;SDS011;57015;50.120;-5.168;2023-07-09T02:17:39;7.50;;;1.00;;
69744;SDS011;57015;50.120;-5.168;2023-07-09T02:20:05;7.37;;;1.53;;
69744;SDS011;57015;50.120;-5.168;2023-07-09T02:22:32;3.85;;;1.10;;
69744;SDS011;57015;50.120;-5.168;2023-07-09T02:24:59;7.03;;;1.53;;
69744;SDS011;57015;50.120;-5.168;2023-07-09T02:27:25;3.97;;;0.80;;
69744;SDS011;57015;50.120;-5.168;2023-07-09T02:29:50;6.57;;;1.20;;
69744;SDS011;57015;50.120;-5.168;2023-07-09T02:32:20;5.73;;;1.23;;
69744;SDS011;57015;50.120;-5.168;2023-07-09T02:34:47;7.60;;;1.17;;
69744;SDS011;57015;50.120;-5.168;2023-07-09T02:37:14;6.17;;;1.10;;
69744;SDS011;57015;50.120;-5.168;2023-07-09T02:39:43;4.75;;;0.95;;
69744;SDS011;57015;50.120;-5.168;2023-07-09T02:42:09;8.15;;;1.20;;
69744;SDS011;57015;50.120;-5.168;2023-07-09T02:44:36;8.10;;;1.10;;
69744;SDS011;57015;50.120;-5.168;2023-07-09T02:47:02;5.05;;;0.60;;
69744;SDS011;57015;50.120;-5.168;2023-07-09T02:49:27;5.93;;;1.30;;
69744;SDS011;57015;50.120;-5.168;2023-07-09T02:51:53;4.65;;;0.75;;
69744;SDS011;57015;50.120;-5.168;2023-07-09T02:54:18;5.65;;;1.05;;
69744;SDS011;57015;50.120;-5.168;2023-07-09T02:56:43;4.83;;;1.13;;
69744;SDS011;57015;50.120;-5.168;2023-07-09T02:59:09;5.43;;;0.77;;
69744;SDS011;57015;50.120;-5.168;2023-07-09T03:01:34;6.07;;;1.07;;
69744;SDS011;57015;50.120;-5.168;2023-07-09T03:04:00;5.47;;;0.77;;
69744;SDS011;57015;50.120;-5.168;2023-07-09T03:06:28;8.20;;;1.17;;
69744;SDS011;57015;50.120;-5.168;2023-07-09T03:08:54;6.40;;;0.85;;
69744;SDS011;57015;50.120;-5.168;2023-07-09T03:11:20;6.83;;;1.00;;
69744;SDS011;57015;50.120;-5.168;2023-07-09T03:13:46;7.18;;;1.30;;
69744;SDS011;57015;50.120;-5.168;2023-07-09T03:16:12;7.00;;;0.77;;
69744;SDS011;57015;50.120;-5.168;2023-07-09T03:18:37;8.48;;;1.10;;
69744;SDS011;57015;50.120;-5.168;2023-07-09T03:21:03;5.93;;;1.13;;
69744;SDS011;57015;50.120;-5.168;2023-07-09T03:23:28;6.25;;;0.75;;
69744;SDS011;57015;50.120;-5.168;2023-07-09T03:25:54;5.70;;;1.10;;
69744;SDS011;57015;50.120;-5.168;2023-07-09T03:28:20;8.37;;;0.80;;
69744;SDS011;57015;50.120;-5.168;2023-07-09T03:30:47;7.20;;;0.80;;
69744;SDS011;57015;50.120;-5.168;2023-07-09T03:33:13;5.93;;;1.07;;
69744;SDS011;57015;50.120;-5.168;2023-07-09T03:35:39;6.57;;;0.80;;
69744;SDS011;57015;50.120;-5.168;2023-07-09T03:38:05;5.97;;;1.20;;
69744;SDS011;57015;50.120;-5.168;2023-07-09T03:40:31;5.55;;;0.93;;
69744;SDS011;57015;50.120;-5.168;2023-07-09T03:42:57;4.15;;;0.70;;
69744;SDS011;57015;50.120;-5.168;2023-07-09T03:45:23;5.67;;;0.97;;
69744;SDS011;57015;50.120;-5.168;2023-07-09T03:47:48;7.07;;;0.70;;
69744;SDS011;57015;50.120;-5.168;2023-07-09T03:50:14;8.32;;;0.98;;
69744;SDS011;57015;50.120;-5.168;2023-07-09T03:52:39;5.67;;;1.07;;
69744;SDS011;57015;50.120;-5.168;2023-07-09T03:55:05;5.28;;;1.10;;
69744;SDS011;57015;50.120;-5.168;2023-07-09T03:57:31;6.07;;;1.00;;
69744;SDS011;57015;50.120;-5.168;2023-07-09T03:59:56;6.10;;;1.23;;
69744;SDS011;57015;50.120;-5.168;2023-07-09T04:02:22;9.50;;;1.45;;
69744;SDS011;57015;50.120;-5.168;2023-07-09T04:04:47;6.63;;;1.00;;
69744;SDS011;57015;50.120;-5.168;2023-07-09T04:07:12;9.87;;;1.10;;
69744;SDS011;57015;50.120;-5.168;2023-07-09T04:09:38;11.07;;;1.23;;
69744;SDS011;57015;50.120;-5.168;2023-07-09T04:12:03;10.17;;;1.30;;
69744;SDS011;57015;50.120;-5.168;2023-07-09T04:14:29;7.05;;;1.20;;
69744;SDS011;57015;50.120;-5.168;2023-07-09T04:16:54;7.77;;;0.90;;
69744;SDS011;57015;50.120;-5.168;2023-07-09T04:19:20;9.37;;;1.50;;
69744;SDS011;57015;50.120;-5.168;2023-07-09T04:21:45;7.47;;;1.40;;
69744;SDS011;57015;50.120;-5.168;2023-07-09T04:24:11;14.63;;;1.63;;
69744;SDS011;57015;50.120;-5.168;2023-07-09T04:26:36;13.15;;;2.10;;
69744;SDS011;57015;50.120;-5.168;2023-07-09T04:29:04;8.30;;;1.40;;
69744;SDS011;57015;50.120;-5.168;2023-07-09T04:31:30;11.18;;;1.45;;
69744;SDS011;57015;50.120;-5.168;2023-07-09T04:33:55;11.67;;;1.40;;
69744;SDS011;57015;50.120;-5.168;2023-07-09T04:36:21;10.02;;;1.23;;
69744;SDS011;57015;50.120;-5.168;2023-07-09T04:38:46;10.93;;;1.90;;
69744;SDS011;57015;50.120;-5.168;2023-07-09T04:41:12;10.30;;;1.80;;
69744;SDS011;57015;50.120;-5.168;2023-07-09T04:43:37;11.43;;;1.60;;
69744;SDS011;57015;50.120;-5.168;2023-07-09T04:46:02;8.70;;;1.42;;
69744;SDS011;57015;50.120;-5.168;2023-07-09T04:48:28;14.25;;;2.22;;
69744;SDS011;57015;50.120;-5.168;2023-07-09T04:50:53;15.53;;;1.87;;
69744;SDS011;57015;50.120;-5.168;2023-07-09T04:53:18;7.23;;;1.60;;
69744;SDS011;57015;50.120;-5.168;2023-07-09T04:55:44;7.00;;;1.80;;
69744;SDS011;57015;50.120;-5.168;2023-07-09T04:58:09;9.37;;;2.17;;
69744;SDS011;57015;50.120;-5.168;2023-07-09T05:00:34;10.93;;;1.50;;
69744;SDS011;57015;50.120;-5.168;2023-07-09T05:03:00;7.33;;;1.10;;
69744;SDS011;57015;50.120;-5.168;2023-07-09T05:05:25;10.07;;;1.27;;
69744;SDS011;57015;50.120;-5.168;2023-07-09T05:07:51;10.18;;;1.73;;
69744;SDS011;57015;50.120;-5.168;2023-07-09T05:10:16;10.80;;;1.37;;
69744;SDS011;57015;50.120;-5.168;2023-07-09T05:12:49;12.20;;;1.70;;
69744;SDS011;57015;50.120;-5.168;2023-07-09T05:15:16;7.03;;;1.42;;
69744;SDS011;57015;50.120;-5.168;2023-07-09T05:17:42;8.60;;;1.73;;
69744;SDS011;57015;50.120;-5.168;2023-07-09T05:20:07;13.63;;;1.73;;
69744;SDS011;57015;50.120;-5.168;2023-07-09T05:22:33;11.90;;;1.73;;
69744;SDS011;57015;50.120;-5.168;2023-07-09T05:24:58;11.82;;;1.75;;
69744;SDS011;57015;50.120;-5.168;2023-07-09T05:27:24;10.53;;;1.90;;
69744;SDS011;57015;50.120;-5.168;2023-07-09T05:29:49;10.47;;;1.97;;
69744;SDS011;57015;50.120;-5.168;2023-07-09T05:32:15;10.70;;;1.70;;
69744;SDS011;57015;50.120;-5.168;2023-07-09T05:34:40;17.20;;;2.20;;
69744;SDS011;57015;50.120;-5.168;2023-07-09T05:37:05;13.32;;;1.83;;
69744;SDS011;57015;50.120;-5.168;2023-07-09T05:39:31;15.60;;;2.30;;
69744;SDS011;57015;50.120;-5.168;2023-07-09T05:41:56;15.63;;;2.00;;
69744;SDS011;57015;50.120;-5.168;2023-07-09T05:44:21;10.43;;;1.93;;
69744;SDS011;57015;50.120;-5.168;2023-07-09T05:46:47;13.10;;;1.93;;
69744;SDS011;57015;50.120;-5.168;2023-07-09T05:49:12;17.27;;;2.33;;
69744;SDS011;57015;50.120;-5.168;2023-07-09T05:51:37;13.77;;;2.00;;
69744;SDS011;57015;50.120;-5.168;2023-07-09T05:54:03;16.57;;;2.33;;
69744;SDS011;57015;50.120;-5.168;2023-07-09T05:56:28;11.40;;;2.10;;
69744;SDS011;57015;50.120;-5.168;2023-07-09T05:58:54;13.53;;;1.97;;
69744;SDS011;57015;50.120;-5.168;2023-07-09T06:01:19;12.60;;;1.93;;
69744;SDS011;57015;50.120;-5.168;2023-07-09T06:03:45;13.87;;;1.87;;
69744;SDS011;57015;50.120;-5.168;2023-07-09T06:06:11;12.68;;;1.85;;
69744;SDS011;57015;50.120;-5.168;2023-07-09T06:08:37;11.30;;;1.88;;
69744;SDS011;57015;50.120;-5.168;2023-07-09T06:11:03;15.93;;;2.00;;
69744;SDS011;57015;50.120;-5.168;2023-07-09T06:13:29;14.88;;;1.90;;
69744;SDS011;57015;50.120;-5.168;2023-07-09T06:15:58;15.65;;;2.30;;
69744;SDS011;57015;50.120;-5.168;2023-07-09T06:18:24;15.90;;;2.23;;
69744;SDS011;57015;50.120;-5.168;2023-07-09T06:20:54;14.60;;;2.85;;
69744;SDS011;57015;50.120;-5.168;2023-07-09T06:23:20;16.95;;;3.40;;
69744;SDS011;57015;50.120;-5.168;2023-07-09T06:25:45;17.37;;;2.47;;
69744;SDS011;57015;50.120;-5.168;2023-07-09T06:28:13;14.63;;;2.45;;
69744;SDS011;57015;50.120;-5.168;2023-07-09T06:30:40;13.82;;;2.53;;
69744;SDS011;57015;50.120;-5.168;2023-07-09T06:33:05;13.87;;;2.50;;
69744;SDS011;57015;50.120;-5.168;2023-07-09T06:35:31;11.80;;;1.60;;
69744;SDS011;57015;50.120;-5.168;2023-07-09T06:37:57;20.02;;;3.00;;
69744;SDS011;57015;50.120;-5.168;2023-07-09T06:40:22;20.27;;;2.20;;
69744;SDS011;57015;50.120;-5.168;2023-07-09T06:42:49;17.45;;;2.85;;
69744;SDS011;57015;50.120;-5.168;2023-07-09T06:45:14;13.02;;;1.92;;
69744;SDS011;57015;50.120;-5.168;2023-07-09T06:47:40;11.18;;;2.03;;
69744;SDS011;57015;50.120;-5.168;2023-07-09T06:50:05;17.23;;;2.27;;
69744;SDS011;57015;50.120;-5.168;2023-07-09T06:52:31;12.05;;;1.50;;
69744;SDS011;57015;50.120;-5.168;2023-07-09T06:54:57;10.70;;;1.87;;
69744;SDS011;57015;50.120;-5.168;2023-07-09T06:57:22;9.93;;;1.40;;
69744;SDS011;57015;50.120;-5.168;2023-07-09T06:59:47;22.03;;;2.47;;
69744;SDS011;57015;50.120;-5.168;2023-07-09T07:02:13;10.67;;;2.00;;
69744;SDS011;57015;50.120;-5.168;2023-07-09T07:04:38;13.90;;;2.07;;
69744;SDS011;57015;50.120;-5.168;2023-07-09T07:07:04;17.77;;;2.35;;
69744;SDS011;57015;50.120;-5.168;2023-07-09T07:09:29;9.63;;;1.30;;
69744;SDS011;57015;50.120;-5.168;2023-07-09T07:11:55;12.10;;;1.67;;
69744;SDS011;57015;50.120;-5.168;2023-07-09T07:14:21;14.80;;;1.88;;
69744;SDS011;57015;50.120;-5.168;2023-07-09T07:16:46;13.63;;;2.00;;
69744;SDS011;57015;50.120;-5.168;2023-07-09T07:19:11;12.80;;;1.63;;
69744;SDS011;57015;50.120;-5.168;2023-07-09T07:21:37;10.15;;;1.65;;
69744;SDS011;57015;50.120;-5.168;2023-07-09T07:24:02;12.40;;;1.87;;
69744;SDS011;57015;50.120;-5.168;2023-07-09T07:26:28;12.00;;;1.80;;
69744;SDS011;57015;50.120;-5.168;2023-07-09T07:28:54;11.98;;;1.65;;
69744;SDS011;57015;50.120;-5.168;2023-07-09T07:31:19;17.00;;;1.90;;
69744;SDS011;57015;50.120;-5.168;2023-07-09T07:33:44;12.47;;;2.13;;
69744;SDS011;57015;50.120;-5.168;2023-07-09T07:36:10;11.53;;;2.10;;
69744;SDS011;57015;50.120;-5.168;2023-07-09T07:38:35;12.02;;;2.08;;
69744;SDS011;57015;50.120;-5.168;2023-07-09T07:41:01;16.13;;;1.70;;
69744;SDS011;57015;50.120;-5.168;2023-07-09T07:43:27;15.63;;;2.00;;
69744;SDS011;57015;50.120;-5.168;2023-07-09T07:45:53;12.85;;;2.00;;
69744;SDS011;57015;50.120;-5.168;2023-07-09T07:48:18;9.77;;;1.80;;
69744;SDS011;57015;50.120;-5.168;2023-07-09T07:50:44;11.43;;;2.43;;
69744;SDS011;57015;50.120;-5.168;2023-07-09T07:53:11;12.20;;;1.70;;
69744;SDS011;57015;50.120;-5.168;2023-07-09T07:55:36;14.02;;;2.40;;
69744;SDS011;57015;50.120;-5.168;2023-07-09T07:58:03;15.93;;;2.07;;
69744;SDS011;57015;50.120;-5.168;2023-07-09T08:00:29;10.68;;;2.50;;
69744;SDS011;57015;50.120;-5.168;2023-07-09T08:02:55;12.50;;;1.92;;
69744;SDS011;57015;50.120;-5.168;2023-07-09T08:05:20;16.53;;;2.53;;
69744;SDS011;57015;50.120;-5.168;2023-07-09T08:07:46;9.68;;;2.65;;
69744;SDS011;57015;50.120;-5.168;2023-07-09T08:10:11;17.13;;;1.90;;
69744;SDS011;57015;50.120;-5.168;2023-07-09T08:12:37;10.30;;;1.80;;
69744;SDS011;57015;50.120;-5.168;2023-07-09T08:15:03;11.27;;;2.05;;
69744;SDS011;57015;50.120;-5.168;2023-07-09T08:17:31;9.43;;;2.60;;
69744;SDS011;57015;50.120;-5.168;2023-07-09T08:19:56;13.00;;;2.00;;
69744;SDS011;57015;50.120;-5.168;2023-07-09T08:22:22;13.82;;;2.28;;
69744;SDS011;57015;50.120;-5.168;2023-07-09T08:24:48;8.05;;;2.00;;
69744;SDS011;57015;50.120;-5.168;2023-07-09T08:27:13;15.30;;;2.63;;
69744;SDS011;57015;50.120;-5.168;2023-07-09T08:29:39;12.10;;;2.03;;
69744;SDS011;57015;50.120;-5.168;2023-07-09T08:32:06;10.13;;;2.47;;
69744;SDS011;57015;50.120;-5.168;2023-07-09T08:34:32;14.38;;;2.08;;
69744;SDS011;57015;50.120;-5.168;2023-07-09T08:36:58;10.57;;;1.70;;
69744;SDS011;57015;50.120;-5.168;2023-07-09T08:39:24;14.23;;;2.05;;
69744;SDS011;57015;50.120;-5.168;2023-07-09T08:42:02;11.43;;;1.83;;
69744;SDS011;57015;50.120;-5.168;2023-07-09T08:47:38;12.38;;;1.40;;
69744;SDS011;57015;50.120;-5.168;2023-07-09T08:50:11;11.37;;;1.77;;
69744;SDS011;57015;50.120;-5.168;2023-07-09T08:52:40;9.98;;;1.52;;
69744;SDS011;57015;50.120;-5.168;2023-07-09T08:55:20;11.82;;;1.33;;
69744;SDS011;57015;50.120;-5.168;2023-07-09T08:57:47;10.55;;;1.45;;
69744;SDS011;57015;50.120;-5.168;2023-07-09T09:00:40;11.68;;;1.80;;
69744;SDS011;57015;50.120;-5.168;2023-07-09T09:03:11;13.00;;;1.50;;
69744;SDS011;57015;50.120;-5.168;2023-07-09T09:05:41;7.47;;;1.65;;
69744;SDS011;57015;50.120;-5.168;2023-07-09T09:13:46;14.20;;;2.15;;
69744;SDS011;57015;50.120;-5.168;2023-07-09T09:16:24;11.63;;;1.47;;
69744;SDS011;57015;50.120;-5.168;2023-07-09T09:18:57;13.07;;;2.13;;
69744;SDS011;57015;50.120;-5.168;2023-07-09T09:21:28;8.13;;;1.27;;
69744;SDS011;57015;50.120;-5.168;2023-07-09T09:23:57;12.15;;;1.80;;
69744;SDS011;57015;50.120;-5.168;2023-07-09T09:26:27;9.88;;;1.30;;
69744;SDS011;57015;50.120;-5.168;2023-07-09T09:28:53;8.30;;;1.43;;
69744;SDS011;57015;50.120;-5.168;2023-07-09T09:31:19;12.98;;;1.58;;
69744;SDS011;57015;50.120;-5.168;2023-07-09T09:33:45;12.53;;;1.93;;
69744;SDS011;57015;50.120;-5.168;2023-07-09T09:36:14;7.97;;;1.20;;
69744;SDS011;57015;50.120;-5.168;2023-07-09T09:38:41;6.80;;;1.17;;
69744;SDS011;57015;50.120;-5.168;2023-07-09T09:41:18;7.68;;;1.13;;
69744;SDS011;57015;50.120;-5.168;2023-07-09T09:43:52;7.28;;;1.17;;
69744;SDS011;57015;50.120;-5.168;2023-07-09T09:46:19;9.65;;;1.60;;
69744;SDS011;57015;50.120;-5.168;2023-07-09T09:48:47;5.30;;;1.30;;
69744;SDS011;57015;50.120;-5.168;2023-07-09T09:51:14;6.40;;;1.10;;
69744;SDS011;57015;50.120;-5.168;2023-07-09T09:53:45;4.80;;;0.95;;
69744;SDS011;57015;50.120;-5.168;2023-07-09T09:56:13;6.97;;;1.00;;
69744;SDS011;57015;50.120;-5.168;2023-07-09T09:58:45;7.38;;;1.10;;
69744;SDS011;57015;50.120;-5.168;2023-07-09T10:01:13;6.97;;;1.00;;
69744;SDS011;57015;50.120;-5.168;2023-07-09T10:03:40;5.53;;;1.07;;
69744;SDS011;57015;50.120;-5.168;2023-07-09T10:06:07;9.68;;;1.67;;
69744;SDS011;57015;50.120;-5.168;2023-07-09T10:11:19;6.55;;;1.10;;
69744;SDS011;57015;50.120;-5.168;2023-07-09T10:13:48;5.90;;;0.90;;
69744;SDS011;57015;50.120;-5.168;2023-07-09T10:27:41;10.13;;;1.85;;
69744;SDS011;57015;50.120;-5.168;2023-07-09T10:30:19;7.82;;;1.45;;
69744;SDS011;57015;50.120;-5.168;2023-07-09T10:33:04;8.55;;;1.17;;
69744;SDS011;57015;50.120;-5.168;2023-07-09T10:35:37;7.77;;;1.90;;
69744;SDS011;57015;50.120;-5.168;2023-07-09T10:38:25;12.43;;;1.83;;
69744;SDS011;57015;50.120;-5.168;2023-07-09T10:40:59;6.97;;;1.38;;
69744;SDS011;57015;50.120;-5.168;2023-07-09T10:46:09;9.05;;;1.70;;
69744;SDS011;57015;50.120;-5.168;2023-07-09T10:48:39;10.50;;;1.20;;
69744;SDS011;57015;50.120;-5.168;2023-07-09T10:51:29;10.20;;;1.70;;
69744;SDS011;57015;50.120;-5.168;2023-07-09T10:54:16;6.75;;;1.20;;
69744;SDS011;57015;50.120;-5.168;2023-07-09T10:56:51;11.98;;;1.85;;
69744;SDS011;57015;50.120;-5.168;2023-07-09T11:05:04;10.35;;;1.60;;
69744;SDS011;57015;50.120;-5.168;2023-07-09T11:07:52;11.20;;;1.85;;
69744;SDS011;57015;50.120;-5.168;2023-07-09T11:13:02;8.20;;;1.42;;
69744;SDS011;57015;50.120;-5.168;2023-07-09T11:15:37;13.83;;;1.73;;
69744;SDS011;57015;50.120;-5.168;2023-07-09T11:18:06;10.50;;;1.73;;
69744;SDS011;57015;50.120;-5.168;2023-07-09T11:20:36;6.53;;;1.40;;
69744;SDS011;57015;50.120;-5.168;2023-07-09T11:23:16;8.98;;;1.90;;
69744;SDS011;57015;50.120;-5.168;2023-07-09T11:25:48;11.20;;;1.55;;
69744;SDS011;57015;50.120;-5.168;2023-07-09T11:28:14;11.63;;;1.80;;
69744;SDS011;57015;50.120;-5.168;2023-07-09T11:30:47;9.07;;;1.33;;
69744;SDS011;57015;50.120;-5.168;2023-07-09T11:33:25;8.57;;;1.57;;
69744;SDS011;57015;50.120;-5.168;2023-07-09T11:35:54;9.50;;;1.08;;
69744;SDS011;57015;50.120;-5.168;2023-07-09T11:38:36;9.23;;;2.22;;
69744;SDS011;57015;50.120;-5.168;2023-07-09T11:41:54;8.35;;;1.77;;
69744;SDS011;57015;50.120;-5.168;2023-07-09T11:44:19;8.50;;;1.33;;
69744;SDS011;57015;50.120;-5.168;2023-07-09T11:49:31;6.28;;;1.58;;
69744;SDS011;57015;50.120;-5.168;2023-07-09T11:52:00;8.60;;;2.03;;
69744;SDS011;57015;50.120;-5.168;2023-07-09T11:54:28;9.82;;;1.77;;
69744;SDS011;57015;50.120;-5.168;2023-07-09T11:56:59;8.00;;;1.58;;
69744;SDS011;57015;50.120;-5.168;2023-07-09T11:59:28;6.10;;;1.40;;
69744;SDS011;57015;50.120;-5.168;2023-07-09T12:01:54;10.45;;;1.65;;
69744;SDS011;57015;50.120;-5.168;2023-07-09T12:04:21;6.95;;;1.15;;
69744;SDS011;57015;50.120;-5.168;2023-07-09T12:06:57;9.13;;;1.30;;
69744;SDS011;57015;50.120;-5.168;2023-07-09T12:09:24;7.10;;;1.30;;
69744;SDS011;57015;50.120;-5.168;2023-07-09T12:11:56;7.63;;;1.20;;
69744;SDS011;57015;50.120;-5.168;2023-07-09T12:14:22;6.17;;;1.13;;
69744;SDS011;57015;50.120;-5.168;2023-07-09T12:16:52;9.30;;;1.60;;
69744;SDS011;57015;50.120;-5.168;2023-07-09T12:19:19;8.98;;;2.25;;
69744;SDS011;57015;50.120;-5.168;2023-07-09T12:21:46;8.38;;;1.50;;
69744;SDS011;57015;50.120;-5.168;2023-07-09T12:24:24;15.52;;;5.80;;
69744;SDS011;57015;50.120;-5.168;2023-07-09T12:26:54;21.30;;;9.07;;
69744;SDS011;57015;50.120;-5.168;2023-07-09T12:29:27;17.65;;;7.15;;
69744;SDS011;57015;50.120;-5.168;2023-07-09T12:31:53;12.30;;;3.38;;
69744;SDS011;57015;50.120;-5.168;2023-07-09T12:34:21;7.63;;;1.58;;
69744;SDS011;57015;50.120;-5.168;2023-07-09T12:36:48;8.73;;;1.60;;
69744;SDS011;57015;50.120;-5.168;2023-07-09T12:39:14;6.38;;;1.25;;
69744;SDS011;57015;50.120;-5.168;2023-07-09T12:41:42;7.43;;;1.40;;
69744;SDS011;57015;50.120;-5.168;2023-07-09T12:44:11;7.40;;;1.23;;
69744;SDS011;57015;50.120;-5.168;2023-07-09T12:46:41;6.85;;;1.38;;
69744;SDS011;57015;50.120;-5.168;2023-07-09T12:49:07;7.78;;;1.33;;
69744;SDS011;57015;50.120;-5.168;2023-07-09T12:51:32;10.60;;;1.67;;
69744;SDS011;57015;50.120;-5.168;2023-07-09T12:56:54;7.67;;;1.40;;
69744;SDS011;57015;50.120;-5.168;2023-07-09T12:59:27;8.20;;;1.70;;
69744;SDS011;57015;50.120;-5.168;2023-07-09T13:05:04;8.63;;;1.55;;
69744;SDS011;57015;50.120;-5.168;2023-07-09T13:07:32;6.70;;;1.17;;
69744;SDS011;57015;50.120;-5.168;2023-07-09T13:10:04;6.97;;;1.30;;
69744;SDS011;57015;50.120;-5.168;2023-07-09T13:12:49;8.00;;;2.17;;
69744;SDS011;57015;50.120;-5.168;2023-07-09T13:15:23;6.90;;;1.67;;
69744;SDS011;57015;50.120;-5.168;2023-07-09T13:17:48;5.50;;;1.35;;
69744;SDS011;57015;50.120;-5.168;2023-07-09T13:20:14;7.80;;;1.20;;
69744;SDS011;57015;50.120;-5.168;2023-07-09T13:22:41;11.63;;;1.48;;
69744;SDS011;57015;50.120;-5.168;2023-07-09T13:25:08;7.10;;;1.63;;
69744;SDS011;57015;50.120;-5.168;2023-07-09T13:27:34;7.10;;;1.30;;
69744;SDS011;57015;50.120;-5.168;2023-07-09T13:30:00;5.97;;;0.93;;
69744;SDS011;57015;50.120;-5.168;2023-07-09T13:32:25;7.40;;;1.63;;
69744;SDS011;57015;50.120;-5.168;2023-07-09T13:34:51;4.83;;;0.90;;
69744;SDS011;57015;50.120;-5.168;2023-07-09T13:37:16;8.80;;;1.57;;
69744;SDS011;57015;50.120;-5.168;2023-07-09T13:39:42;8.20;;;1.33;;
69744;SDS011;57015;50.120;-5.168;2023-07-09T13:42:12;4.13;;;0.98;;
69744;SDS011;57015;50.120;-5.168;2023-07-09T13:44:41;5.53;;;1.47;;
69744;SDS011;57015;50.120;-5.168;2023-07-09T13:47:09;4.28;;;1.00;;
69744;SDS011;57015;50.120;-5.168;2023-07-09T13:49:37;9.50;;;1.70;;
69744;SDS011;57015;50.120;-5.168;2023-07-09T13:52:03;5.27;;;1.07;;
69744;SDS011;57015;50.120;-5.168;2023-07-09T13:54:31;10.52;;;1.52;;
69744;SDS011;57015;50.120;-5.168;2023-07-09T13:57:01;4.65;;;0.98;;
69744;SDS011;57015;50.120;-5.168;2023-07-09T13:59:27;8.27;;;1.10;;
69744;SDS011;57015;50.120;-5.168;2023-07-09T14:01:55;6.80;;;1.03;;
69744;SDS011;57015;50.120;-5.168;2023-07-09T14:04:21;6.97;;;1.20;;
69744;SDS011;57015;50.120;-5.168;2023-07-09T14:06:47;9.70;;;1.58;;
69744;SDS011;57015;50.120;-5.168;2023-07-09T14:09:13;7.87;;;1.00;;
69744;SDS011;57015;50.120;-5.168;2023-07-09T14:11:44;6.28;;;1.45;;
69744;SDS011;57015;50.120;-5.168;2023-07-09T14:16:43;5.40;;;0.85;;
69744;SDS011;57015;50.120;-5.168;2023-07-09T14:19:13;5.47;;;1.10;;
69744;SDS011;57015;50.120;-5.168;2023-07-09T14:21:42;7.32;;;0.80;;
69744;SDS011;57015;50.120;-5.168;2023-07-09T14:26:47;3.70;;;1.17;;
69744;SDS011;57015;50.120;-5.168;2023-07-09T14:29:13;5.55;;;1.42;;
69744;SDS011;57015;50.120;-5.168;2023-07-09T14:31:39;7.15;;;0.88;;
69744;SDS011;57015;50.120;-5.168;2023-07-09T14:36:42;4.18;;;0.80;;
69744;SDS011;57015;50.120;-5.168;2023-07-09T14:39:11;4.57;;;0.80;;
69744;SDS011;57015;50.120;-5.168;2023-07-09T14:41:36;5.72;;;1.10;;
69744;SDS011;57015;50.120;-5.168;2023-07-09T14:44:02;5.55;;;1.00;;
69744;SDS011;57015;50.120;-5.168;2023-07-09T14:46:34;3.70;;;0.90;;
69744;SDS011;57015;50.120;-5.168;2023-07-09T14:49:00;6.22;;;1.05;;
69744;SDS011;57015;50.120;-5.168;2023-07-09T14:51:25;7.17;;;1.20;;
69744;SDS011;57015;50.120;-5.168;2023-07-09T14:53:51;7.73;;;1.20;;
69744;SDS011;57015;50.120;-5.168;2023-07-09T14:56:16;8.73;;;0.90;;
69744;SDS011;57015;50.120;-5.168;2023-07-09T14:58:41;8.80;;;1.33;;
69744;SDS011;57015;50.120;-5.168;2023-07-09T15:01:13;6.33;;;1.40;;
69744;SDS011;57015;50.120;-5.168;2023-07-09T15:03:39;5.50;;;1.40;;
69744;SDS011;57015;50.120;-5.168;2023-07-09T15:06:05;5.85;;;1.00;;
69744;SDS011;57015;50.120;-5.168;2023-07-09T15:08:31;4.77;;;1.03;;
69744;SDS011;57015;50.120;-5.168;2023-07-09T15:10:56;5.73;;;0.80;;
69744;SDS011;57015;50.120;-5.168;2023-07-09T15:15:55;3.50;;;0.90;;
69744;SDS011;57015;50.120;-5.168;2023-07-09T15:18:20;3.85;;;0.82;;
69744;SDS011;57015;50.120;-5.168;2023-07-09T15:20:58;4.80;;;0.90;;
69744;SDS011;57015;50.120;-5.168;2023-07-09T15:23:26;2.90;;;1.17;;
69744;SDS011;57015;50.120;-5.168;2023-07-09T15:25:52;4.03;;;0.83;;
69744;SDS011;57015;50.120;-5.168;2023-07-09T15:28:17;7.03;;;1.15;;
69744;SDS011;57015;50.120;-5.168;2023-07-09T15:30:43;8.87;;;0.90;;